Time;durP1;ratioP1;P1;durP2;ratioP2;P2;SDS_P1;SDS_P2;PMS_P1;PMS_P2;Temp;Humidity;BMP_temperature;BMP_pressure;BME280_temperature;BME280_humidity;BME280_pressure;Samples;Min_cycle;Max_cycle;Signal;HPM_P1;HPM_P2
2023/10/27 02:52:26;;;;;;;9.07;6.00;;;14.50;99.90;;;;;;4546377;19;20044;31
2023/10/27 02:54:03;;;;;;;7.13;5.33;;;14.50;99.90;;;;;;4591468;19;20476;-78
2023/10/27 02:55:37;;;;;;;7.60;5.50;;;14.50;99.90;;;;;;4590324;19;20445;-78
2023/10/27 02:57:11;;;;;;;8.43;6.05;;;14.60;99.90;;;;;;4591348;19;20018;-77
2023/10/27 02:58:46;;;;;;;8.35;6.10;;;14.70;99.90;;;;;;4590765;19;20023;-78
2023/10/27 03:00:21;;;;;;;7.78;5.53;;;14.90;99.90;;;;;;4591563;19;20082;-78
2023/10/27 03:01:55;;;;;;;7.70;5.45;;;15.00;99.90;;;;;;4591263;19;20074;-78
2023/10/27 03:03:32;;;;;;;6.97;5.05;;;15.10;99.90;;;;;;4590486;19;20003;-78
2023/10/27 03:05:08;;;;;;;6.75;5.28;;;15.30;99.90;;;;;;4591271;19;20003;-78
2023/10/27 03:06:44;;;;;;;6.18;4.72;;;15.40;99.90;;;;;;4591234;19;20014;-78
2023/10/27 03:08:20;;;;;;;6.20;4.65;;;15.50;99.90;;;;;;4591188;19;20090;-78
2023/10/27 03:09:55;;;;;;;6.25;4.70;;;15.60;99.90;;;;;;4591241;19;20006;-78
2023/10/27 03:11:29;;;;;;;5.10;4.00;;;15.70;99.90;;;;;;4591187;19;20003;-78
2023/10/27 03:13:08;;;;;;;5.85;4.60;;;15.80;99.90;;;;;;4590451;19;20007;-78
2023/10/27 03:14:43;;;;;;;6.47;4.35;;;15.80;99.90;;;;;;4589855;19;20012;-78
2023/10/27 03:16:17;;;;;;;5.65;4.28;;;15.90;99.90;;;;;;4591009;19;20009;-79
2023/10/27 03:17:52;;;;;;;6.00;4.68;;;16.10;99.90;;;;;;4589787;19;20452;-80
2023/10/27 03:19:26;;;;;;;5.80;3.97;;;16.20;99.90;;;;;;4588718;19;20297;-79
2023/10/27 03:21:03;;;;;;;6.40;4.30;;;16.30;99.90;;;;;;4590647;19;20429;-79
2023/10/27 03:22:40;;;;;;;6.43;4.63;;;16.40;99.90;;;;;;4593831;19;20007;-80
2023/10/27 03:24:16;;;;;;;6.40;4.50;;;16.50;99.90;;;;;;4595332;19;20014;-79
2023/10/27 03:25:51;;;;;;;6.80;4.68;;;16.60;99.90;;;;;;4594154;19;20002;-79
2023/10/27 03:27:27;;;;;;;5.90;4.40;;;16.70;99.90;;;;;;4595155;19;19998;-79
2023/10/27 03:29:01;;;;;;;5.60;4.20;;;16.80;99.90;;;;;;4595669;19;20014;-79
2023/10/27 03:30:35;;;;;;;5.30;4.00;;;16.90;99.90;;;;;;4595414;19;20062;-79
2023/10/27 03:32:11;;;;;;;5.20;3.80;;;17.00;99.90;;;;;;4595463;19;20062;-79
2023/10/27 03:33:45;;;;;;;5.72;3.70;;;17.00;99.90;;;;;;4593755;19;20006;-79
2023/10/27 03:35:21;;;;;;;5.35;4.22;;;17.10;99.90;;;;;;4595525;19;20424;-79
2023/10/27 03:36:57;;;;;;;5.05;3.90;;;17.20;99.90;;;;;;4595319;19;20006;-79
2023/10/27 03:38:30;;;;;;;4.97;3.50;;;17.20;99.90;;;;;;4594737;19;20002;-79
2023/10/27 03:40:06;;;;;;;5.70;4.40;;;17.20;99.90;;;;;;4595180;19;20350;-79
2023/10/27 03:41:41;;;;;;;4.00;3.20;;;17.30;99.90;;;;;;4595222;19;20536;-79
2023/10/27 03:43:15;;;;;;;4.38;3.22;;;17.40;99.90;;;;;;4594111;19;20026;-83
2023/10/27 03:44:52;;;;;;;5.22;4.10;;;17.40;99.90;;;;;;4595335;19;20481;-79
2023/10/27 03:46:28;;;;;;;4.57;3.40;;;17.40;99.90;;;;;;4595118;19;20016;-79
2023/10/27 03:48:03;;;;;;;5.75;3.95;;;17.40;99.90;;;;;;4595313;19;19998;-79
2023/10/27 03:49:37;;;;;;;4.97;3.63;;;17.50;99.90;;;;;;4594964;19;20005;-79
2023/10/27 03:51:13;;;;;;;5.07;3.75;;;17.60;99.90;;;;;;4595033;19;20049;-80
2023/10/27 03:52:47;;;;;;;4.70;3.85;;;17.70;99.90;;;;;;4593985;19;20046;-79
2023/10/27 03:54:21;;;;;;;4.63;3.60;;;17.70;99.90;;;;;;4594924;19;20002;-79
2023/10/27 03:55:58;;;;;;;6.32;3.63;;;17.70;99.90;;;;;;4595059;19;20027;-78
2023/10/27 03:57:35;;;;;;;4.50;3.30;;;17.90;99.90;;;;;;4594851;19;20013;-79
2023/10/27 03:59:10;;;;;;;4.72;3.70;;;17.90;99.90;;;;;;4594102;19;20313;-79
2023/10/27 04:00:46;;;;;;;5.38;4.00;;;17.90;99.90;;;;;;4594807;19;20309;-78
2023/10/27 04:02:20;;;;;;;6.22;4.10;;;18.00;99.90;;;;;;4593680;19;19999;-78
2023/10/27 04:03:54;;;;;;;6.25;4.15;;;18.00;99.90;;;;;;4593388;19;19991;-78
2023/10/27 04:05:32;;;;;;;7.25;4.82;;;18.10;99.90;;;;;;4594352;19;20009;-79
2023/10/27 04:07:09;;;;;;;5.57;3.80;;;18.20;99.90;;;;;;4594487;19;20025;-77
2023/10/27 04:08:44;;;;;;;5.75;4.20;;;18.20;99.90;;;;;;4594071;19;20002;-79
2023/10/27 04:10:21;;;;;;;4.93;3.40;;;18.30;99.90;;;;;;4593777;19;19998;-80
2023/10/27 04:12:00;;;;;;;4.38;3.30;;;18.30;99.90;;;;;;4593773;19;20009;-79
2023/10/27 04:13:34;;;;;;;5.43;3.20;;;18.30;99.90;;;;;;4593135;19;20006;-79
2023/10/27 04:15:11;;;;;;;4.60;3.55;;;18.30;99.90;;;;;;4594522;19;20028;-80
2023/10/27 04:16:46;;;;;;;7.03;4.10;;;18.30;99.90;;;;;;4594447;19;20006;-79
2023/10/27 04:18:20;;;;;;;6.00;4.50;;;18.30;99.90;;;;;;4592835;19;20021;-80
2023/10/27 04:19:55;;;;;;;7.82;6.03;;;18.30;99.90;;;;;;4593233;19;20011;-79
2023/10/27 04:21:31;;;;;;;7.35;6.60;;;18.30;99.90;;;;;;4592949;19;20002;-79
2023/10/27 04:23:07;;;;;;;7.28;6.22;;;18.30;99.90;;;;;;4593491;19;20310;-79
2023/10/27 04:24:42;;;;;;;7.80;6.20;;;17.80;99.90;;;;;;4594303;19;20006;-79
2023/10/27 04:26:17;;;;;;;6.93;6.00;;;17.40;99.90;;;;;;4593134;19;20006;-79
2023/10/27 04:27:51;;;;;;;5.80;4.70;;;17.10;99.90;;;;;;4593846;19;20006;-78
2023/10/27 04:29:26;;;;;;;7.80;5.13;;;16.80;99.90;;;;;;4594896;19;20011;-78
2023/10/27 04:31:00;;;;;;;7.13;5.50;;;16.70;99.90;;;;;;4594386;19;20413;-78
2023/10/27 04:32:35;;;;;;;8.50;6.15;;;16.60;99.90;;;;;;4593187;19;20010;-78
2023/10/27 04:34:10;;;;;;;8.40;5.57;;;16.50;99.90;;;;;;4592627;19;20006;-78
2023/10/27 04:35:43;;;;;;;7.32;5.15;;;16.50;99.90;;;;;;4593682;19;20007;-78
2023/10/27 04:37:19;;;;;;;8.93;6.32;;;16.40;99.90;;;;;;4592678;19;19999;-78
2023/10/27 04:38:55;;;;;;;8.45;6.18;;;16.40;99.90;;;;;;4592025;19;20078;-78
2023/10/27 04:40:31;;;;;;;7.68;5.25;;;16.40;99.90;;;;;;4593457;19;20003;-79
2023/10/27 04:42:05;;;;;;;6.32;4.63;;;16.40;99.90;;;;;;4593857;19;19998;-78
2023/10/27 04:43:42;;;;;;;7.75;5.82;;;16.30;99.90;;;;;;4592743;19;20002;-78
2023/10/27 04:45:17;;;;;;;7.95;5.63;;;16.30;99.90;;;;;;4593833;19;20002;-78
2023/10/27 04:46:52;;;;;;;6.43;5.22;;;16.30;99.90;;;;;;4593748;19;19998;-78
2023/10/27 04:48:27;;;;;;;6.72;5.70;;;16.30;99.90;;;;;;4592678;19;20452;-78
2023/10/27 04:50:01;;;;;;;6.50;5.18;;;16.30;99.90;;;;;;4593398;19;20006;-78
2023/10/27 04:51:36;;;;;;;5.53;4.85;;;16.30;99.90;;;;;;4593622;19;20436;-78
2023/10/27 04:53:12;;;;;;;5.78;4.75;;;16.30;99.90;;;;;;4592405;19;20015;-78
2023/10/27 04:54:46;;;;;;;6.57;5.22;;;16.30;99.90;;;;;;4593826;19;20014;-78
2023/10/27 04:56:20;;;;;;;6.38;4.95;;;16.40;99.90;;;;;;4592189;19;20041;-79
2023/10/27 04:57:57;;;;;;;7.32;5.57;;;16.30;99.90;;;;;;4592173;19;20010;-79
2023/10/27 04:59:36;;;;;;;6.00;5.00;;;16.30;99.90;;;;;;4592115;19;20002;-78
2023/10/27 05:01:10;;;;;;;5.88;5.22;;;16.30;99.90;;;;;;4593571;19;20003;-79
2023/10/27 05:02:45;;;;;;;6.40;4.85;;;16.30;99.90;;;;;;4593393;19;20271;-79
2023/10/27 05:04:19;;;;;;;5.15;4.60;;;16.30;99.90;;;;;;4593314;19;20306;-78
2023/10/27 05:05:52;;;;;;;5.72;4.82;;;16.30;99.90;;;;;;4593360;19;20020;-78
2023/10/27 05:07:29;;;;;;;5.72;4.57;;;16.30;99.90;;;;;;4593516;19;20003;-79
2023/10/27 05:09:04;;;;;;;5.47;4.28;;;16.30;99.90;;;;;;4593515;19;20002;-78
2023/10/27 05:10:40;;;;;;;5.70;4.57;;;16.30;99.90;;;;;;4593496;19;20009;-79
2023/10/27 05:12:15;;;;;;;5.13;4.13;;;16.30;99.90;;;;;;4593247;19;20006;-79
2023/10/27 05:13:50;;;;;;;5.03;3.92;;;16.20;99.90;;;;;;4590836;19;20410;-79
2023/10/27 05:15:25;;;;;;;5.97;4.57;;;16.20;99.90;;;;;;4593054;19;20075;-79
2023/10/27 05:17:01;;;;;;;6.75;5.43;;;16.10;99.90;;;;;;4593198;19;20028;-79
2023/10/27 05:18:35;;;;;;;6.25;4.93;;;16.10;99.90;;;;;;4592995;19;20002;-79
2023/10/27 05:20:10;;;;;;;6.20;5.28;;;16.10;99.90;;;;;;4593056;19;20145;-79
2023/10/27 05:21:45;;;;;;;6.10;5.10;;;16.00;99.90;;;;;;4593078;19;20006;-79
2023/10/27 05:23:19;;;;;;;6.05;5.25;;;15.90;99.90;;;;;;4591681;19;20283;-78
2023/10/27 05:24:53;;;;;;;6.72;5.25;;;15.80;99.90;;;;;;4592094;19;20417;-79
2023/10/27 05:26:29;;;;;;;6.97;4.88;;;15.90;99.90;;;;;;4592278;19;20017;-79
2023/10/27 05:28:04;;;;;;;6.60;4.95;;;16.10;99.90;;;;;;4591002;19;20003;-79
2023/10/27 05:29:38;;;;;;;5.47;4.22;;;16.30;99.90;;;;;;4591934;19;20018;-79
2023/10/27 05:31:15;;;;;;;7.10;5.43;;;16.40;99.90;;;;;;4592249;19;20002;-79
2023/10/27 05:32:50;;;;;;;6.55;5.00;;;16.50;99.90;;;;;;4592608;19;20307;-79
2023/10/27 05:34:25;;;;;;;7.45;5.40;;;16.60;99.90;;;;;;4592990;19;20425;-79
2023/10/27 05:36:03;;;;;;;5.97;4.45;;;16.70;99.90;;;;;;4592917;19;20006;-79
2023/10/27 05:37:37;;;;;;;6.97;5.50;;;16.80;99.90;;;;;;4592749;19;20082;-79
2023/10/27 05:39:16;;;;;;;7.05;5.57;;;16.90;99.90;;;;;;4591863;19;20011;-79
2023/10/27 05:40:57;;;;;;;7.35;5.88;;;17.00;99.90;;;;;;4591405;19;20317;-79
2023/10/27 05:42:31;;;;;;;8.65;6.80;;;17.10;99.90;;;;;;4592364;19;20005;-79
2023/10/27 05:44:05;;;;;;;10.00;7.25;;;17.10;99.90;;;;;;4589873;19;20003;-78
2023/10/27 05:45:40;;;;;;;9.18;7.68;;;17.20;99.90;;;;;;4592596;19;20429;-79
2023/10/27 05:47:15;;;;;;;8.93;7.10;;;17.20;99.90;;;;;;4592830;19;20287;-79
2023/10/27 05:48:51;;;;;;;9.50;7.28;;;17.30;99.90;;;;;;4592669;19;20029;-79
2023/10/27 05:50:28;;;;;;;9.30;7.03;;;17.30;99.90;;;;;;4592508;19;20014;-78
2023/10/27 05:52:05;;;;;;;10.02;7.90;;;17.40;99.90;;;;;;4592436;19;20065;-79
2023/10/27 05:53:39;;;;;;;11.65;7.80;;;17.40;99.90;;;;;;4590940;19;20031;-78
2023/10/27 05:55:15;;;;;;;8.55;6.30;;;17.50;99.90;;;;;;4592416;19;20074;-78
2023/10/27 05:56:52;;;;;;;9.77;7.30;;;17.50;99.90;;;;;;4592269;19;20454;-78
2023/10/27 05:58:30;;;;;;;10.40;8.02;;;17.60;99.90;;;;;;4592360;19;20006;-78
2023/10/27 06:00:06;;;;;;;9.35;7.65;;;17.60;99.90;;;;;;4592577;19;20016;-78
2023/10/27 06:01:40;;;;;;;8.77;7.45;;;17.70;99.90;;;;;;4591215;19;20009;-78
2023/10/27 06:03:14;;;;;;;12.10;7.70;;;17.70;99.90;;;;;;4591113;19;20013;-78
2023/10/27 06:04:50;;;;;;;9.48;7.25;;;17.80;99.90;;;;;;4592305;19;20007;-78
2023/10/27 06:06:24;;;;;;;8.25;5.82;;;17.80;99.90;;;;;;4592205;19;19998;-79
2023/10/27 06:07:59;;;;;;;8.57;5.88;;;17.80;99.90;;;;;;4592585;19;20006;-77
2023/10/27 06:09:35;;;;;;;8.27;6.68;;;17.80;99.90;;;;;;4591314;19;20070;-77
2023/10/27 06:11:12;;;;;;;8.88;6.50;;;17.80;99.90;;;;;;4590661;19;20330;-77
2023/10/27 06:12:46;;;;;;;9.02;6.53;;;17.90;99.90;;;;;;4592035;19;20010;-77
2023/10/27 06:14:23;;;;;;;8.10;6.35;;;17.90;99.90;;;;;;4592522;19;20010;-77
2023/10/27 06:15:58;;;;;;;9.40;6.90;;;17.90;99.90;;;;;;4591933;19;20010;-76
2023/10/27 06:17:34;;;;;;;8.20;6.95;;;17.90;99.90;;;;;;4591844;19;20449;-77
2023/10/27 06:19:10;;;;;;;9.25;7.03;;;17.90;99.90;;;;;;4591500;19;20362;-77
2023/10/27 06:20:45;;;;;;;9.35;7.00;;;18.00;99.90;;;;;;4593812;19;20329;-78
2023/10/27 06:22:23;;;;;;;8.77;7.10;;;18.10;99.90;;;;;;4592360;19;20006;-77
2023/10/27 06:23:59;;;;;;;10.27;7.60;;;18.10;99.90;;;;;;4591878;19;20303;-77
2023/10/27 06:25:33;;;;;;;8.57;7.10;;;18.20;99.90;;;;;;4592100;19;20481;-77
2023/10/27 06:27:06;;;;;;;9.50;7.22;;;18.20;99.90;;;;;;4591818;19;20029;-78
2023/10/27 06:28:44;;;;;;;9.77;7.95;;;18.30;99.90;;;;;;4592147;19;20007;-78
2023/10/27 06:30:20;;;;;;;9.00;7.43;;;18.30;99.90;;;;;;4591774;19;20363;-77
2023/10/27 06:31:54;;;;;;;10.18;7.45;;;18.30;99.90;;;;;;4590401;19;20011;-77
2023/10/27 06:33:32;;;;;;;10.15;7.95;;;18.30;99.90;;;;;;4589400;19;20006;-77
2023/10/27 06:35:09;;;;;;;16.63;13.00;;;18.30;99.90;;;;;;4590382;19;20015;-77
2023/10/27 06:36:45;;;;;;;16.80;14.52;;;18.30;99.90;;;;;;4591354;19;20003;-77
2023/10/27 06:38:21;;;;;;;15.40;12.80;;;18.30;99.90;;;;;;4592154;19;20006;-78
2023/10/27 06:39:58;;;;;;;11.75;9.55;;;18.30;99.90;;;;;;4591961;19;20443;-78
2023/10/27 06:41:33;;;;;;;8.80;6.75;;;18.20;99.90;;;;;;4591702;19;19999;-78
2023/10/27 06:43:09;;;;;;;9.63;8.52;;;18.20;99.90;;;;;;4590793;19;20003;-78
2023/10/27 06:44:44;;;;;;;8.48;7.07;;;18.20;99.90;;;;;;4591464;19;20010;-78
2023/10/27 06:46:18;;;;;;;10.10;8.55;;;18.20;99.90;;;;;;4591491;19;20010;-78
2023/10/27 06:47:53;;;;;;;8.90;7.20;;;18.20;99.90;;;;;;4592023;19;20007;-78
2023/10/27 06:49:27;;;;;;;8.57;7.30;;;18.20;99.90;;;;;;4591423;19;20421;-78
2023/10/27 06:51:01;;;;;;;8.10;6.65;;;18.20;99.90;;;;;;4591437;19;20009;-78
2023/10/27 06:52:38;;;;;;;7.18;5.97;;;18.20;99.90;;;;;;4590946;19;19995;-78
2023/10/27 06:54:12;;;;;;;8.48;7.15;;;18.10;99.90;;;;;;4591693;19;20034;-78
2023/10/27 06:55:46;;;;;;;7.97;6.60;;;18.10;99.90;;;;;;4593218;19;20435;-78
2023/10/27 06:57:22;;;;;;;6.75;5.78;;;18.10;99.90;;;;;;4595949;19;20010;-77
2023/10/27 06:59:01;;;;;;;8.88;7.00;;;18.10;99.90;;;;;;4593861;19;19998;-77
2023/10/27 07:00:34;;;;;;;7.85;6.70;;;18.10;99.90;;;;;;4595789;19;20078;-77
2023/10/27 07:02:10;;;;;;;7.85;6.60;;;18.10;99.90;;;;;;4595941;19;20038;-77
2023/10/27 07:03:45;;;;;;;8.20;6.70;;;18.10;99.90;;;;;;4594483;19;20010;-77
2023/10/27 07:05:19;;;;;;;8.77;6.50;;;18.00;99.90;;;;;;4595906;19;20003;-77
2023/10/27 07:06:56;;;;;;;7.05;5.93;;;18.10;99.90;;;;;;4595134;19;20421;-78
2023/10/27 07:08:33;;;;;;;7.03;5.60;;;18.00;99.90;;;;;;4595450;19;20003;-78
2023/10/27 07:10:10;;;;;;;7.05;5.93;;;18.00;99.90;;;;;;4595487;19;20077;-80
2023/10/27 07:11:46;;;;;;;8.52;6.50;;;18.00;99.90;;;;;;4595961;19;20455;-82
2023/10/27 07:13:20;;;;;;;7.05;6.05;;;18.00;99.90;;;;;;4596594;19;20002;-83
2023/10/27 07:14:56;;;;;;;7.25;6.28;;;18.00;99.90;;;;;;4596274;19;20405;-79
2023/10/27 07:16:32;;;;;;;9.32;6.85;;;18.00;99.90;;;;;;4597836;19;20100;-84
2023/10/27 07:18:06;;;;;;;8.07;6.97;;;18.00;99.90;;;;;;4596066;19;20014;-79
2023/10/27 07:19:40;;;;;;;8.30;7.05;;;18.00;99.90;;;;;;4593136;19;20006;-78
2023/10/27 07:21:16;;;;;;;10.45;8.95;;;18.00;99.90;;;;;;4595374;19;20073;-77
2023/10/27 07:22:51;;;;;;;13.15;10.23;;;18.00;99.90;;;;;;4592963;19;20318;-78
2023/10/27 07:24:33;;;;;;;11.73;9.23;;;18.00;99.90;;;;;;4593682;19;20043;-77
2023/10/27 07:26:20;;;;;;;11.50;9.48;;;18.00;99.90;;;;;;4593807;19;20417;-81
2023/10/27 07:27:55;;;;;;;12.02;9.85;;;17.90;99.90;;;;;;4593949;19;20014;-77
2023/10/27 07:29:31;;;;;;;10.45;9.05;;;17.90;99.90;;;;;;4594833;19;20445;-78
2023/10/27 07:31:07;;;;;;;9.95;8.38;;;17.90;99.90;;;;;;4594570;19;20013;-76
2023/10/27 07:32:41;;;;;;;11.40;8.63;;;17.90;99.90;;;;;;4593913;19;20538;-80
2023/10/27 07:34:16;;;;;;;10.45;8.35;;;17.90;99.90;;;;;;4593690;19;19998;-78
2023/10/27 07:35:52;;;;;;;10.85;8.27;;;17.90;99.90;;;;;;4593565;19;20010;-77
2023/10/27 07:37:26;;;;;;;9.48;8.43;;;17.90;99.90;;;;;;4594642;19;20289;-78
2023/10/27 07:38:59;;;;;;;11.48;9.25;;;17.90;99.90;;;;;;4593284;19;20033;-85
2023/10/27 07:40:41;;;;;;;11.10;9.50;;;17.90;99.90;;;;;;4592941;19;20006;-80
2023/10/27 07:42:15;;;;;;;12.32;9.50;;;17.90;99.90;;;;;;4592856;19;20011;-80
2023/10/27 07:43:49;;;;;;;11.27;9.27;;;17.90;99.90;;;;;;4591049;19;20033;-80
2023/10/27 07:45:25;;;;;;;10.88;9.20;;;17.90;99.90;;;;;;4592942;19;20097;-80
2023/10/27 07:46:59;;;;;;;10.75;8.80;;;17.90;99.90;;;;;;4593001;19;20443;-80
2023/10/27 07:48:33;;;;;;;11.75;9.73;;;17.90;99.90;;;;;;4592884;19;20002;-80
2023/10/27 07:50:09;;;;;;;11.52;9.50;;;17.90;99.90;;;;;;4592915;19;20003;-80
2023/10/27 07:51:45;;;;;;;11.15;8.40;;;17.90;99.90;;;;;;4592653;19;20299;-80
2023/10/27 07:53:19;;;;;;;11.75;8.63;;;17.90;99.90;;;;;;4591162;19;20033;-80
2023/10/27 07:54:55;;;;;;;9.75;8.48;;;17.90;99.90;;;;;;4592966;19;20014;-80
2023/10/27 07:56:31;;;;;;;11.13;9.40;;;17.90;99.90;;;;;;4594610;19;20006;-79
2023/10/27 07:58:05;;;;;;;14.63;9.10;;;17.90;99.90;;;;;;4594307;19;20013;-80
2023/10/27 07:59:43;;;;;;;10.30;8.50;;;17.90;99.90;;;;;;4594579;19;20011;-79
2023/10/27 08:01:18;;;;;;;11.48;9.32;;;17.90;99.90;;;;;;4595489;19;20015;-79
2023/10/27 08:03:02;;;;;;;11.10;9.80;;;17.90;99.90;;;;;;4593570;19;20089;-79
2023/10/27 08:04:38;;;;;;;13.00;10.70;;;17.90;99.90;;;;;;4594108;19;20021;-80
2023/10/27 08:06:12;;;;;;;12.23;10.70;;;17.90;99.90;;;;;;4593878;19;20009;-79
2023/10/27 08:07:47;;;;;;;14.48;10.57;;;17.90;99.90;;;;;;4592848;19;20018;-80
2023/10/27 08:09:22;;;;;;;12.52;10.10;;;17.90;99.90;;;;;;4594776;19;20010;-80
2023/10/27 08:10:56;;;;;;;11.25;9.15;;;17.90;99.90;;;;;;4593728;19;20001;-80
2023/10/27 08:12:31;;;;;;;12.35;9.77;;;17.90;99.90;;;;;;4594824;19;20006;-81
2023/10/27 08:14:06;;;;;;;12.55;9.68;;;17.80;99.90;;;;;;4594609;19;20078;-81
2023/10/27 08:15:40;;;;;;;11.77;9.32;;;17.80;99.90;;;;;;4595567;19;20306;-81
2023/10/27 08:17:17;;;;;;;11.45;9.73;;;17.80;99.90;;;;;;4595497;19;20381;-79
2023/10/27 08:18:55;;;;;;;11.35;9.48;;;17.80;99.90;;;;;;4593545;19;20015;-79
2023/10/27 08:20:30;;;;;;;28.95;19.60;;;17.80;99.90;;;;;;4594062;19;20002;-81
2023/10/27 08:22:04;;;;;;;49.53;29.63;;;17.80;99.90;;;;;;4593916;19;20453;-79
2023/10/27 08:23:39;;;;;;;34.15;23.02;;;17.80;99.90;;;;;;4593044;19;20058;-80
2023/10/27 08:25:13;;;;;;;25.83;17.20;;;17.80;99.90;;;;;;4593249;19;20011;-79
2023/10/27 08:26:48;;;;;;;19.70;13.88;;;17.80;99.90;;;;;;4593164;19;20023;-78
2023/10/27 08:28:24;;;;;;;23.42;16.73;;;17.80;99.90;;;;;;4593100;19;20011;-79
2023/10/27 08:29:59;;;;;;;20.15;15.02;;;17.80;99.90;;;;;;4593747;19;20086;-80
2023/10/27 08:31:33;;;;;;;21.30;15.02;;;17.80;99.90;;;;;;4592808;19;20344;-81
2023/10/27 08:33:09;;;;;;;23.67;15.27;;;17.80;99.90;;;;;;4593048;19;20464;-81
2023/10/27 08:34:44;;;;;;;15.05;11.80;;;17.80;99.90;;;;;;4593335;19;20082;-81
2023/10/27 08:36:19;;;;;;;14.98;10.90;;;17.90;99.90;;;;;;4592632;19;20018;-82
2023/10/27 08:37:55;;;;;;;12.45;10.48;;;17.90;99.90;;;;;;4593940;19;20025;-80
2023/10/27 08:39:37;;;;;;;11.15;9.60;;;17.90;99.90;;;;;;4592757;19;20013;-83
2023/10/27 08:41:13;;;;;;;11.00;9.32;;;18.00;99.90;;;;;;4592936;19;20333;-81
2023/10/27 08:42:49;;;;;;;10.73;9.35;;;18.00;99.90;;;;;;4592478;19;20442;-82
2023/10/27 08:44:24;;;;;;;10.98;9.18;;;18.00;99.90;;;;;;4594206;19;20013;-81
2023/10/27 08:46:01;;;;;;;11.77;10.07;;;18.00;99.90;;;;;;4592946;19;19995;-82
2023/10/27 08:47:37;;;;;;;10.90;9.63;;;18.00;99.90;;;;;;4593221;19;20010;-80
2023/10/27 08:49:11;;;;;;;11.15;9.95;;;18.00;99.90;;;;;;4593773;19;19999;-84
2023/10/27 08:50:47;;;;;;;10.65;9.20;;;18.00;99.90;;;;;;4592600;19;20006;-82
2023/10/27 08:52:24;;;;;;;11.27;9.63;;;18.10;99.90;;;;;;4593394;19;20006;-82
2023/10/27 08:53:58;;;;;;;13.30;10.02;;;18.10;99.90;;;;;;4591474;19;20014;-81
2023/10/27 08:55:33;;;;;;;11.32;9.90;;;18.10;99.90;;;;;;4592477;19;20073;-82
2023/10/27 08:57:09;;;;;;;14.75;10.90;;;18.10;99.90;;;;;;4593125;19;20357;-81
2023/10/27 08:58:55;;;;;;;11.68;10.10;;;18.10;99.90;;;;;;4593364;19;20518;-82
2023/10/27 09:00:30;;;;;;;12.40;10.27;;;18.10;99.90;;;;;;4594786;19;20003;-82
2023/10/27 09:02:06;;;;;;;11.75;9.65;;;18.10;99.90;;;;;;4593950;19;20429;-82
2023/10/27 09:03:41;;;;;;;13.52;9.88;;;18.10;99.90;;;;;;4591352;19;20003;-83
2023/10/27 09:05:15;;;;;;;11.70;10.05;;;18.10;99.90;;;;;;4594138;19;19999;-82
2023/10/27 09:06:51;;;;;;;11.00;9.70;;;18.10;99.90;;;;;;4593178;19;20024;-83
2023/10/27 09:08:26;;;;;;;11.65;9.52;;;18.20;99.90;;;;;;4593633;19;20410;-82
2023/10/27 09:10:01;;;;;;;14.85;11.65;;;18.10;99.90;;;;;;4593340;19;20002;-83
2023/10/27 09:11:44;;;;;;;25.35;15.93;;;18.10;99.90;;;;;;4595164;19;20437;-83
2023/10/27 09:13:24;;;;;;;24.02;17.02;;;18.10;99.90;;;;;;4592797;19;20074;-82
2023/10/27 09:15:06;;;;;;;15.82;12.55;;;18.10;99.90;;;;;;4592835;19;20018;-82
2023/10/27 09:16:43;;;;;;;12.52;10.68;;;18.10;99.90;;;;;;4592077;19;20006;-82
2023/10/27 09:18:18;;;;;;;17.90;12.75;;;18.00;99.90;;;;;;4592903;19;20429;-82
2023/10/27 09:20:13;;;;;;;34.83;22.13;;;18.00;99.90;;;;;;4590166;19;20306;-82
2023/10/27 09:21:49;;;;;;;25.45;16.80;;;18.00;99.90;;;;;;4593271;19;20007;-83
2023/10/27 09:23:24;;;;;;;13.70;9.88;;;18.00;99.90;;;;;;4592266;19;20013;-82
2023/10/27 09:25:17;;;;;;;12.88;9.70;;;18.00;99.90;;;;;;4593024;19;20013;-82
2023/10/27 09:26:53;;;;;;;10.90;8.45;;;18.00;99.90;;;;;;4593064;19;20030;-82
2023/10/27 09:28:31;;;;;;;12.98;8.45;;;18.00;99.90;;;;;;4591822;19;20065;-82
2023/10/27 09:30:06;;;;;;;9.05;7.40;;;17.90;99.90;;;;;;4591812;19;20307;-81
2023/10/27 09:31:45;;;;;;;9.45;7.65;;;18.00;99.90;;;;;;4591850;19;20003;-82
2023/10/27 09:33:26;;;;;;;7.72;6.88;;;18.00;99.90;;;;;;4590833;19;20021;-82
2023/10/27 09:35:18;;;;;;;8.20;7.10;;;17.90;99.90;;;;;;4591469;19;20060;-81
2023/10/27 09:36:55;;;;;;;8.00;6.72;;;17.90;99.90;;;;;;4593285;19;20006;-81
2023/10/27 09:38:30;;;;;;;11.57;9.50;;;18.00;99.90;;;;;;4593040;19;20011;-81
2023/10/27 09:40:13;;;;;;;13.20;9.98;;;17.90;99.90;;;;;;4592249;19;20025;-81
2023/10/27 09:41:54;;;;;;;17.20;13.13;;;17.90;99.90;;;;;;4592466;19;20018;-81
2023/10/27 09:43:29;;;;;;;20.00;13.73;;;17.90;99.90;;;;;;4590721;19;20006;-81
2023/10/27 09:45:11;;;;;;;15.65;10.93;;;17.90;99.90;;;;;;4591251;19;20041;-82
2023/10/27 09:46:52;;;;;;;18.60;11.88;;;17.90;99.90;;;;;;4591272;19;20010;-81
2023/10/27 09:48:30;;;;;;;15.93;12.30;;;17.90;99.90;;;;;;4592512;19;20334;-81
2023/10/27 09:50:08;;;;;;;12.30;10.35;;;17.80;99.90;;;;;;4592992;19;20007;-82
2023/10/27 09:51:45;;;;;;;11.80;9.88;;;17.80;99.90;;;;;;4591499;19;20310;-81
2023/10/27 09:53:20;;;;;;;10.18;9.07;;;17.80;99.90;;;;;;4590555;19;20011;-81
2023/10/27 09:54:55;;;;;;;9.93;8.82;;;17.80;99.90;;;;;;4592335;19;20425;-81
2023/10/27 09:56:31;;;;;;;9.25;7.95;;;17.80;99.90;;;;;;4591362;19;20003;-80
2023/10/27 09:58:05;;;;;;;11.90;9.15;;;17.80;99.90;;;;;;4591237;19;20525;-77
2023/10/27 09:59:41;;;;;;;10.88;8.02;;;17.80;99.90;;;;;;4591097;19;20447;-81
2023/10/27 10:01:18;;;;;;;9.95;8.45;;;17.80;99.90;;;;;;4590944;19;20441;-81
2023/10/27 10:02:52;;;;;;;8.27;7.32;;;17.80;99.90;;;;;;4590515;19;20010;-80
2023/10/27 10:05:08;;;;;;;9.05;7.57;;;17.80;99.90;;;;;;4591783;19;20078;-80
2023/10/27 10:06:44;;;;;;;11.20;8.75;;;17.80;99.90;;;;;;4589814;19;20003;-80
2023/10/27 10:08:20;;;;;;;9.88;8.85;;;17.90;99.90;;;;;;4590225;19;20003;-80
2023/10/27 10:09:54;;;;;;;11.20;9.05;;;17.90;99.90;;;;;;4589902;19;20014;-80
2023/10/27 10:11:37;;;;;;;12.02;10.63;;;17.90;99.90;;;;;;4589757;19;20030;-80
2023/10/27 10:13:16;;;;;;;11.75;10.23;;;17.90;99.90;;;;;;4589218;19;20017;-80
2023/10/27 10:14:50;;;;;;;11.00;9.68;;;17.80;99.90;;;;;;4589938;19;20026;-80
2023/10/27 10:16:26;;;;;;;14.10;11.10;;;17.80;99.90;;;;;;4589791;19;20014;-80
2023/10/27 10:18:02;;;;;;;12.35;10.77;;;17.80;99.90;;;;;;4589889;19;20006;-80
2023/10/27 10:20:03;;;;;;;10.38;9.35;;;17.80;99.90;;;;;;4589202;19;20007;-81
2023/10/27 10:21:40;;;;;;;11.88;10.02;;;17.80;99.90;;;;;;4589448;19;20014;-81
2023/10/27 10:23:15;;;;;;;11.07;9.73;;;17.90;99.90;;;;;;4589026;19;20425;-81
2023/10/27 10:25:23;;;;;;;11.05;9.90;;;17.90;99.90;;;;;;4590123;19;20066;-80
2023/10/27 10:27:10;;;;;;;12.00;9.70;;;17.90;99.90;;;;;;4589654;19;20334;-80
2023/10/27 10:28:46;;;;;;;9.65;8.65;;;17.80;99.90;;;;;;4589676;19;20039;-81
2023/10/27 10:30:22;;;;;;;9.55;8.65;;;17.90;99.90;;;;;;4590472;19;20039;-81
2023/10/27 10:32:32;;;;;;;10.50;9.40;;;17.80;99.90;;;;;;4594298;19;20449;-81
2023/10/27 10:34:10;;;;;;;10.25;8.23;;;17.80;99.90;;;;;;4594501;19;20449;-81
2023/10/27 10:35:51;;;;;;;9.65;8.50;;;17.80;99.90;;;;;;4594122;19;20112;-81
2023/10/27 10:37:26;;;;;;;9.85;8.43;;;17.80;99.90;;;;;;4594247;19;20036;-81
2023/10/27 10:39:04;;;;;;;9.57;8.27;;;17.90;99.90;;;;;;4594418;19;20028;-81
2023/10/27 10:40:58;;;;;;;9.35;7.68;;;17.80;99.90;;;;;;4596080;19;20007;-81
2023/10/27 10:42:32;;;;;;;12.07;8.68;;;17.80;99.90;;;;;;4594939;19;20007;-80
2023/10/27 10:44:19;;;;;;;12.05;9.35;;;17.80;99.90;;;;;;4595130;19;20305;-81
2023/10/27 10:45:56;;;;;;;9.10;7.82;;;17.80;99.90;;;;;;4595222;19;20025;-82
2023/10/27 10:47:31;;;;;;;8.20;7.20;;;17.90;99.90;;;;;;4595858;19;20018;-81
2023/10/27 10:49:06;;;;;;;8.27;7.32;;;17.80;99.90;;;;;;4596076;19;20305;-82
2023/10/27 10:50:42;;;;;;;8.27;6.65;;;17.80;99.90;;;;;;4596085;19;20011;-81
2023/10/27 10:52:23;;;;;;;7.53;6.72;;;17.80;99.90;;;;;;4596374;19;20014;-81
2023/10/27 10:53:58;;;;;;;7.10;6.40;;;17.80;99.90;;;;;;4593278;19;20085;-81
2023/10/27 10:55:34;;;;;;;8.32;6.65;;;17.80;99.90;;;;;;4595854;19;20014;-81
2023/10/27 10:57:09;;;;;;;8.30;6.25;;;17.80;99.90;;;;;;4596221;19;20021;-81
2023/10/27 10:58:43;;;;;;;8.13;6.25;;;17.80;99.90;;;;;;4595693;19;20002;-81
2023/10/27 11:00:20;;;;;;;7.95;6.07;;;17.80;99.90;;;;;;4594714;19;20073;-81
2023/10/27 11:01:56;;;;;;;7.35;6.60;;;17.80;99.90;;;;;;4594721;19;20010;-80
2023/10/27 11:03:33;;;;;;;8.82;6.82;;;17.80;99.90;;;;;;4594001;19;20014;-80
2023/10/27 11:05:25;;;;;;;8.10;7.25;;;17.80;99.90;;;;;;4595886;19;20321;-81
2023/10/27 11:07:03;;;;;;;8.05;6.82;;;17.80;99.90;;;;;;4594527;19;20021;-80
2023/10/27 11:08:38;;;;;;;7.30;6.45;;;17.80;99.90;;;;;;4594544;19;20009;-81
2023/10/27 11:10:19;;;;;;;7.68;5.95;;;17.80;99.90;;;;;;4595645;19;20006;-81